createdAt,value
2022-11-21T00:00:19.455Z,9.74
2022-11-21T00:01:19.444Z,9.74
2022-11-21T00:02:19.490Z,9.72
2022-11-21T00:03:19.418Z,9.75
2022-11-21T00:04:19.414Z,9.74
2022-11-21T00:05:19.390Z,9.75
2022-11-21T00:06:19.380Z,9.74
2022-11-21T00:07:19.388Z,9.72
2022-11-21T00:08:19.352Z,9.74
2022-11-21T00:09:19.337Z,9.72
2022-11-21T00:10:19.327Z,9.74
2022-11-21T00:11:19.310Z,9.74
2022-11-21T00:12:19.300Z,9.74
2022-11-21T00:13:19.287Z,9.72
2022-11-21T00:14:19.274Z,9.74
2022-11-21T00:15:19.258Z,9.72
2022-11-21T00:16:19.248Z,9.72
2022-11-21T00:17:19.233Z,9.72
2022-11-21T00:18:19.222Z,9.72
2022-11-21T00:19:19.205Z,9.70
2022-11-21T00:20:19.194Z,9.72
2022-11-21T00:21:19.178Z,9.70
2022-11-21T00:22:19.168Z,9.74
2022-11-21T00:23:19.152Z,9.72
2022-11-21T00:24:19.141Z,9.72
2022-11-21T00:25:19.126Z,9.70
2022-11-21T00:26:19.115Z,9.70
2022-11-21T00:27:19.101Z,9.72
2022-11-21T00:28:19.094Z,9.72
2022-11-21T00:29:19.077Z,9.70
2022-11-21T00:30:19.061Z,9.70
2022-11-21T00:31:19.048Z,9.72
2022-11-21T00:32:19.036Z,9.74
2022-11-21T00:33:19.022Z,9.74
2022-11-21T00:34:19.010Z,9.72
2022-11-21T00:35:18.996Z,9.72
2022-11-21T00:36:18.985Z,9.70
2022-11-21T00:37:18.970Z,9.72
2022-11-21T00:38:18.956Z,9.72
2022-11-21T00:39:18.956Z,9.72
2022-11-21T00:40:18.934Z,9.72
2022-11-21T00:41:18.927Z,9.72
2022-11-21T00:42:18.905Z,9.72
2022-11-21T00:43:18.896Z,9.70
2022-11-21T00:44:18.896Z,9.74
2022-11-21T00:45:24.165Z,9.74
2022-11-21T00:46:18.852Z,9.70
2022-11-21T00:47:18.836Z,9.72
2022-11-21T00:48:18.824Z,9.72
2022-11-21T00:49:18.811Z,9.72
2022-11-21T00:50:18.799Z,9.72
2022-11-21T00:51:18.784Z,9.72
2022-11-21T00:52:18.772Z,9.75
2022-11-21T00:53:18.757Z,9.74
2022-11-21T00:54:18.746Z,9.74
2022-11-21T00:55:18.731Z,9.74
2022-11-21T00:56:18.719Z,9.74
2022-11-21T00:57:18.704Z,9.74
2022-11-21T00:58:18.694Z,9.74
2022-11-21T00:59:18.681Z,9.74
2022-11-21T01:00:18.667Z,9.74
2022-11-21T01:01:18.724Z,9.72
2022-11-21T01:02:18.641Z,9.77
2022-11-21T01:03:18.628Z,9.72
2022-11-21T01:04:18.614Z,9.72
2022-11-21T01:05:18.603Z,9.72
2022-11-21T01:06:18.589Z,9.72
2022-11-21T01:07:18.635Z,9.70
2022-11-21T01:08:18.561Z,9.74
2022-11-21T01:09:18.549Z,9.72
2022-11-21T01:10:18.536Z,9.72
2022-11-21T01:11:18.520Z,9.72
2022-11-21T01:12:18.508Z,9.72
2022-11-21T01:13:18.523Z,9.70
2022-11-21T01:14:18.483Z,9.69
2022-11-21T01:15:18.468Z,9.72
2022-11-21T01:16:18.461Z,9.72
2022-11-21T01:17:18.441Z,9.70
2022-11-21T01:18:18.429Z,9.70
2022-11-21T01:19:18.419Z,9.72
2022-11-21T01:20:18.403Z,9.72
2022-11-21T01:21:18.388Z,9.72
2022-11-21T01:22:18.377Z,9.72
2022-11-21T01:23:18.374Z,9.70
2022-11-21T01:24:18.350Z,9.72
2022-11-21T01:25:18.335Z,9.72
2022-11-21T01:26:18.329Z,9.74
2022-11-21T01:27:18.309Z,9.74
2022-11-21T01:28:18.297Z,9.74
2022-11-21T01:29:18.307Z,9.74
2022-11-21T01:30:18.270Z,9.74
2022-11-21T01:31:18.258Z,9.72
2022-11-21T01:32:18.245Z,9.74
2022-11-21T01:33:18.231Z,9.74
2022-11-21T01:34:18.220Z,9.74
2022-11-21T01:35:18.205Z,9.72
2022-11-21T01:36:18.194Z,9.74
2022-11-21T01:37:18.178Z,9.70
2022-11-21T01:38:24.172Z,9.74
2022-11-21T01:39:18.152Z,9.74
2022-11-21T01:40:18.143Z,9.74
2022-11-21T01:41:18.126Z,9.74
2022-11-21T01:42:18.115Z,9.72
2022-11-21T01:43:18.099Z,9.72
2022-11-21T01:44:18.090Z,9.72
2022-11-21T01:45:18.099Z,9.74
2022-11-21T01:46:18.061Z,9.75
2022-11-21T01:47:18.054Z,9.74
2022-11-21T01:48:18.041Z,9.72
2022-11-21T01:49:18.022Z,9.74
2022-11-21T01:50:18.010Z,9.74
2022-11-21T01:51:17.995Z,9.74
2022-11-21T01:52:17.983Z,9.75
2022-11-21T01:53:17.970Z,9.74
2022-11-21T01:54:17.956Z,9.70
2022-11-21T01:55:17.947Z,9.72
2022-11-21T01:56:17.931Z,9.72
2022-11-21T01:57:17.918Z,9.72
2022-11-21T01:58:17.905Z,9.74
2022-11-21T01:59:17.893Z,9.74
2022-11-21T02:00:17.878Z,9.72
2022-11-21T02:01:17.994Z,9.75
2022-11-21T02:02:17.854Z,9.75
2022-11-21T02:03:17.838Z,9.74
2022-11-21T02:04:17.830Z,9.74
2022-11-21T02:05:17.813Z,9.74
2022-11-21T02:06:17.800Z,9.75
2022-11-21T02:07:17.827Z,9.74
2022-11-21T02:08:17.776Z,9.74
2022-11-21T02:09:17.761Z,9.75
2022-11-21T02:10:17.748Z,9.75
2022-11-21T02:11:17.734Z,9.77
2022-11-21T02:12:17.721Z,9.75
2022-11-21T02:13:17.708Z,9.77
2022-11-21T02:14:17.695Z,9.74
2022-11-21T02:15:17.682Z,9.74
2022-11-21T02:16:17.673Z,9.75
2022-11-21T02:17:17.681Z,9.77
2022-11-21T02:18:17.645Z,9.74
2022-11-21T02:19:17.629Z,9.75
2022-11-21T02:20:17.621Z,9.75
2022-11-21T02:21:17.609Z,9.75
2022-11-21T02:22:17.591Z,9.74
2022-11-21T02:23:17.582Z,9.75
2022-11-21T02:24:17.565Z,9.74
2022-11-21T02:25:17.552Z,9.75
2022-11-21T02:26:17.540Z,9.75
2022-11-21T02:27:17.524Z,9.75
2022-11-21T02:28:17.513Z,9.75
2022-11-21T02:29:17.497Z,9.75
2022-11-21T02:30:17.489Z,9.77
2022-11-21T02:31:17.471Z,9.74
2022-11-21T02:32:17.460Z,9.77
2022-11-21T02:33:17.471Z,9.74
2022-11-21T02:34:17.434Z,9.77
2022-11-21T02:35:17.419Z,9.75
2022-11-21T02:36:17.405Z,9.75
2022-11-21T02:37:17.392Z,9.75
2022-11-21T02:38:17.380Z,9.72
2022-11-21T02:39:17.364Z,9.72
2022-11-21T02:40:17.353Z,9.75
2022-11-21T02:41:17.340Z,9.74
2022-11-21T02:42:17.327Z,9.75
2022-11-21T02:43:17.312Z,9.75
2022-11-21T02:44:17.302Z,9.75
2022-11-21T02:45:17.295Z,9.74
2022-11-21T02:46:17.277Z,9.75
2022-11-21T02:47:17.270Z,9.74
2022-11-21T02:48:17.250Z,9.75
2022-11-21T02:49:17.259Z,9.75
2022-11-21T02:50:17.224Z,9.74
2022-11-21T02:51:17.209Z,9.77
2022-11-21T02:52:17.198Z,9.75
2022-11-21T02:53:17.183Z,9.75
2022-11-21T02:54:17.171Z,9.79
2022-11-21T02:55:17.157Z,9.77
2022-11-21T02:56:17.144Z,9.75
2022-11-21T02:57:17.131Z,9.79
2022-11-21T02:58:17.119Z,9.79
2022-11-21T02:59:17.105Z,9.79
2022-11-21T03:00:17.093Z,9.77
2022-11-21T03:01:17.138Z,9.81
2022-11-21T03:02:17.075Z,9.79
2022-11-21T03:03:17.052Z,9.79
2022-11-21T03:04:17.044Z,9.79
2022-11-21T03:05:17.054Z,9.77
2022-11-21T03:06:17.016Z,9.79
2022-11-21T03:07:17.066Z,9.81
2022-11-21T03:08:16.989Z,9.79
2022-11-21T03:09:17.008Z,9.81
2022-11-21T03:10:16.965Z,9.77
2022-11-21T03:11:16.950Z,9.77
2022-11-21T03:12:16.940Z,9.79
2022-11-21T03:13:16.929Z,9.81
2022-11-21T03:14:16.912Z,9.79
2022-11-21T03:15:16.897Z,9.79
2022-11-21T03:16:16.886Z,9.77
2022-11-21T03:17:16.873Z,9.79
2022-11-21T03:18:16.859Z,9.77
2022-11-21T03:19:16.844Z,9.75
2022-11-21T03:20:16.836Z,9.77
2022-11-21T03:21:16.862Z,9.81
2022-11-21T03:22:16.810Z,9.79
2022-11-21T03:23:16.796Z,9.77
2022-11-21T03:24:16.782Z,9.79
2022-11-21T03:25:16.766Z,9.79
2022-11-21T03:26:16.759Z,9.77
2022-11-21T03:27:16.742Z,9.79
2022-11-21T03:28:16.732Z,9.79
2022-11-21T03:29:16.716Z,9.77
2022-11-21T03:30:16.705Z,9.77
2022-11-21T03:31:16.691Z,9.75
2022-11-21T03:32:16.678Z,9.77
2022-11-21T03:33:16.666Z,9.77
2022-11-21T03:34:16.657Z,9.74
2022-11-21T03:35:16.639Z,9.75
2022-11-21T03:36:16.630Z,9.75
2022-11-21T03:37:16.638Z,9.77
2022-11-21T03:38:16.601Z,9.75
2022-11-21T03:39:16.586Z,9.75
2022-11-21T03:40:16.586Z,9.74
2022-11-21T03:41:16.561Z,9.75
2022-11-21T03:42:16.547Z,9.74
2022-11-21T03:43:16.532Z,9.75
2022-11-21T03:44:16.523Z,9.74
2022-11-21T03:45:16.508Z,9.74
2022-11-21T03:46:16.497Z,9.74
2022-11-21T03:47:16.480Z,9.75
2022-11-21T03:48:16.470Z,9.72
2022-11-21T03:49:16.454Z,9.75
2022-11-21T03:50:16.444Z,9.74
2022-11-21T03:51:16.428Z,9.75
2022-11-21T03:52:16.417Z,9.75
2022-11-21T03:53:16.425Z,9.77
2022-11-21T03:54:16.390Z,9.77
2022-11-21T03:55:16.374Z,9.75
2022-11-21T03:56:16.365Z,9.75
2022-11-21T03:57:16.349Z,9.75
2022-11-21T03:58:16.337Z,9.75
2022-11-21T03:59:16.324Z,9.79
2022-11-21T04:00:16.312Z,9.77
2022-11-21T04:01:16.376Z,9.75
2022-11-21T04:02:16.283Z,9.75
2022-11-21T04:03:16.270Z,9.75
2022-11-21T04:04:16.258Z,9.75
2022-11-21T04:05:16.242Z,9.75
2022-11-21T04:06:16.233Z,9.77
2022-11-21T04:07:16.241Z,9.77
2022-11-21T04:08:16.205Z,9.75
2022-11-21T04:09:16.211Z,9.79
2022-11-21T04:10:16.180Z,9.79
2022-11-21T04:11:16.163Z,9.77
2022-11-21T04:12:16.153Z,9.77
2022-11-21T04:13:16.138Z,9.79
2022-11-21T04:14:16.126Z,9.77
2022-11-21T04:15:16.110Z,9.77
2022-11-21T04:16:16.100Z,9.79
2022-11-21T04:17:16.085Z,9.77
2022-11-21T04:18:16.072Z,9.77
2022-11-21T04:19:16.059Z,9.77
2022-11-21T04:20:16.045Z,9.75
2022-11-21T04:21:16.035Z,9.75
2022-11-21T04:22:16.018Z,9.74
2022-11-21T04:23:16.007Z,9.75
2022-11-21T04:24:16.005Z,9.75
2022-11-21T04:25:16.007Z,9.75
2022-11-21T04:26:15.966Z,9.79
2022-11-21T04:27:15.954Z,9.77
2022-11-21T04:28:15.944Z,9.81
2022-11-21T04:29:15.927Z,9.79
2022-11-21T04:30:15.918Z,9.77
2022-11-21T04:31:15.904Z,9.79
2022-11-21T04:32:15.889Z,9.77
2022-11-21T04:33:15.875Z,9.79
2022-11-21T04:34:15.860Z,9.79
2022-11-21T04:35:15.850Z,9.77
2022-11-21T04:36:15.835Z,9.81
2022-11-21T04:37:15.867Z,9.77
2022-11-21T04:38:15.809Z,9.77
2022-11-21T04:39:15.796Z,9.77
2022-11-21T04:40:15.783Z,9.77
2022-11-21T04:41:15.797Z,9.77
2022-11-21T04:42:15.755Z,9.74
2022-11-21T04:43:15.744Z,9.79
2022-11-21T04:44:15.732Z,9.79
2022-11-21T04:45:15.718Z,9.75
2022-11-21T04:46:15.702Z,9.77
2022-11-21T04:47:15.691Z,9.77
2022-11-21T04:48:15.678Z,9.77
2022-11-21T04:49:15.668Z,9.79
2022-11-21T04:50:15.654Z,9.79
2022-11-21T04:51:15.641Z,9.79
2022-11-21T04:52:15.626Z,9.77
2022-11-21T04:53:15.612Z,9.79
2022-11-21T04:54:15.597Z,9.79
2022-11-21T04:55:15.587Z,9.79
2022-11-21T04:56:15.576Z,9.77
2022-11-21T04:57:15.585Z,9.79
2022-11-21T04:58:15.546Z,9.77
2022-11-21T04:59:15.534Z,9.77
2022-11-21T05:00:18.551Z,9.77
2022-11-21T05:01:16.627Z,9.79
2022-11-21T05:02:15.492Z,9.79
2022-11-21T05:03:15.482Z,9.79
2022-11-21T05:04:15.467Z,9.81
2022-11-21T05:05:15.454Z,9.79
2022-11-21T05:06:15.436Z,9.79
2022-11-21T05:07:15.494Z,9.77
2022-11-21T05:08:15.409Z,9.77
2022-11-21T05:09:15.396Z,9.77
2022-11-21T05:10:15.386Z,9.77
2022-11-21T05:11:15.376Z,9.77
2022-11-21T05:12:15.359Z,9.77
2022-11-21T05:13:15.374Z,9.77
2022-11-21T05:14:15.331Z,9.77
2022-11-21T05:15:16.562Z,9.81
2022-11-21T05:16:15.308Z,9.79
2022-11-21T05:17:15.296Z,9.79
2022-11-21T05:18:15.280Z,9.81
2022-11-21T05:19:15.268Z,9.81
2022-11-21T05:20:15.255Z,9.79
2022-11-21T05:21:15.241Z,9.79
2022-11-21T05:22:15.226Z,9.81
2022-11-21T05:23:15.219Z,9.77
2022-11-21T05:24:15.200Z,9.82
2022-11-21T05:25:15.190Z,9.79
2022-11-21T05:26:15.176Z,9.79
2022-11-21T05:27:15.165Z,9.79
2022-11-21T05:28:15.151Z,9.79
2022-11-21T05:29:15.162Z,9.81
2022-11-21T05:30:15.129Z,9.81
2022-11-21T05:31:15.114Z,9.81
2022-11-21T05:32:15.098Z,9.79
2022-11-21T05:33:15.086Z,9.79
2022-11-21T05:34:15.073Z,9.79
2022-11-21T05:35:15.062Z,9.82
2022-11-21T05:36:15.047Z,9.81
2022-11-21T05:37:15.035Z,9.79
2022-11-21T05:38:15.020Z,9.79
2022-11-21T05:39:15.008Z,9.81
2022-11-21T05:40:14.995Z,9.77
2022-11-21T05:41:14.983Z,9.81
2022-11-21T05:42:14.967Z,9.79
2022-11-21T05:43:14.960Z,9.81
2022-11-21T05:44:14.940Z,9.81
2022-11-21T05:45:14.955Z,9.79
2022-11-21T05:46:14.916Z,9.77
2022-11-21T05:47:14.903Z,9.79
2022-11-21T05:48:14.892Z,9.81
2022-11-21T05:49:14.880Z,9.77
2022-11-21T05:50:14.868Z,9.79
2022-11-21T05:51:14.854Z,9.81
2022-11-21T05:52:14.838Z,9.79
2022-11-21T05:53:14.828Z,9.79
2022-11-21T05:54:14.815Z,9.82
2022-11-21T05:55:14.809Z,9.79
2022-11-21T05:56:14.786Z,9.81
2022-11-21T05:57:14.781Z,9.79
2022-11-21T05:58:14.763Z,9.79
2022-11-21T05:59:14.752Z,9.81
2022-11-21T06:00:14.736Z,9.79
2022-11-21T06:01:14.771Z,9.81
2022-11-21T06:02:14.712Z,9.81
2022-11-21T06:03:14.808Z,9.81
2022-11-21T06:04:14.681Z,9.79
2022-11-21T06:05:14.672Z,9.77
2022-11-21T06:06:14.656Z,9.81
2022-11-21T06:07:14.680Z,9.79
2022-11-21T06:08:14.635Z,9.79
2022-11-21T06:09:14.621Z,9.77
2022-11-21T06:10:14.606Z,9.77
2022-11-21T06:11:14.597Z,9.77
2022-11-21T06:12:14.604Z,9.75
2022-11-21T06:13:14.574Z,9.77
2022-11-21T06:14:14.594Z,9.74
2022-11-21T06:15:14.611Z,9.75
2022-11-21T06:16:14.537Z,9.74
2022-11-21T06:17:14.561Z,9.74
2022-11-21T06:18:44.979Z,9.74
2022-11-21T06:19:44.979Z,9.75
2022-11-21T06:20:44.946Z,9.75
2022-11-21T06:21:44.945Z,9.77
2022-11-21T06:22:44.904Z,9.77
2022-11-21T06:23:44.970Z,9.77
2022-11-21T06:24:44.875Z,9.75
2022-11-21T06:25:44.862Z,9.77
2022-11-21T06:26:44.848Z,9.77
2022-11-21T06:27:44.837Z,9.79
2022-11-21T06:28:44.824Z,9.79
2022-11-21T06:29:44.812Z,9.81
2022-11-21T06:30:44.796Z,9.81
2022-11-21T06:31:44.793Z,9.79
2022-11-21T06:32:44.849Z,9.77
2022-11-21T06:33:44.758Z,9.77
2022-11-21T06:34:44.743Z,9.79
2022-11-21T06:35:44.734Z,9.81
2022-11-21T06:36:44.716Z,9.81
2022-11-21T06:37:46.562Z,9.79
2022-11-21T06:38:44.704Z,9.81
2022-11-21T06:39:44.679Z,9.82
2022-11-21T06:40:44.668Z,9.82
2022-11-21T06:41:44.653Z,9.81
2022-11-21T06:42:44.638Z,9.81
2022-11-21T06:43:44.632Z,9.81
2022-11-21T06:44:44.614Z,9.81
2022-11-21T06:45:44.604Z,9.81
2022-11-21T06:46:49.664Z,9.81
2022-11-21T06:47:45.614Z,9.81
2022-11-21T06:48:44.633Z,9.82
2022-11-21T06:49:44.549Z,9.81
2022-11-21T06:50:44.535Z,9.79
2022-11-21T06:51:44.525Z,9.81
2022-11-21T06:52:44.517Z,9.81
2022-11-21T06:53:44.501Z,9.81
2022-11-21T06:54:44.485Z,9.81
2022-11-21T06:55:44.491Z,9.81
2022-11-21T06:56:44.472Z,9.79
2022-11-21T06:57:44.443Z,9.79
2022-11-21T06:58:44.436Z,9.79
2022-11-21T06:59:44.418Z,9.81
2022-11-21T07:00:44.406Z,9.81
2022-11-21T07:01:44.470Z,9.79
2022-11-21T07:02:44.375Z,9.81
2022-11-21T07:03:44.365Z,9.81
2022-11-21T07:04:44.374Z,9.82
2022-11-21T07:05:44.339Z,9.81
2022-11-21T07:06:44.326Z,9.82
2022-11-21T07:07:44.390Z,9.81
2022-11-21T07:08:44.298Z,9.81
2022-11-21T07:09:44.284Z,9.81
2022-11-21T07:11:03.370Z,9.81
2022-11-21T07:11:45.300Z,9.82
2022-11-21T07:12:44.244Z,9.82
2022-11-21T07:13:44.233Z,9.82
2022-11-21T07:14:44.218Z,9.83
2022-11-21T07:15:44.207Z,9.81
2022-11-21T07:16:44.192Z,9.81
2022-11-21T07:17:44.181Z,9.81
2022-11-21T07:18:44.170Z,9.82
2022-11-21T07:19:44.156Z,9.82
2022-11-21T07:20:44.164Z,9.82
2022-11-21T07:21:44.145Z,9.82
2022-11-21T07:22:44.117Z,9.82
2022-11-21T07:23:44.109Z,9.82
2022-11-21T07:24:44.111Z,9.83
2022-11-21T07:25:44.076Z,9.83
2022-11-21T07:26:44.063Z,9.82
2022-11-21T07:27:44.051Z,9.82
2022-11-21T07:28:44.036Z,9.82
2022-11-21T07:29:44.028Z,9.82
2022-11-21T07:30:44.010Z,9.82
2022-11-21T07:31:44.003Z,9.81
2022-11-21T07:32:43.985Z,9.81
2022-11-21T07:33:43.974Z,9.81
2022-11-21T07:34:43.957Z,9.82
2022-11-21T07:35:43.951Z,9.82
2022-11-21T07:36:43.956Z,9.81
2022-11-21T07:37:43.920Z,9.81
2022-11-21T07:38:43.906Z,9.81
2022-11-21T07:39:43.895Z,9.81
2022-11-21T07:40:43.881Z,9.81
2022-11-21T07:41:43.869Z,9.81
2022-11-21T07:42:43.856Z,9.81
2022-11-21T07:43:43.842Z,9.81
2022-11-21T07:44:43.829Z,9.81
2022-11-21T07:45:43.821Z,9.82
2022-11-21T07:46:43.803Z,9.81
2022-11-21T07:47:43.792Z,9.79
2022-11-21T07:48:43.776Z,9.79
2022-11-21T07:49:43.765Z,9.79
2022-11-21T07:50:43.751Z,9.81
2022-11-21T07:51:43.739Z,9.79
2022-11-21T07:52:43.748Z,9.79
2022-11-21T07:53:43.710Z,9.79
2022-11-21T07:54:43.696Z,9.77
2022-11-21T07:55:43.687Z,9.75
2022-11-21T07:56:43.673Z,9.77
2022-11-21T07:57:43.660Z,9.77
2022-11-21T07:58:43.646Z,9.75
2022-11-21T07:59:43.636Z,9.75
2022-11-21T08:00:43.664Z,9.75
2022-11-21T08:01:45.613Z,9.75
2022-11-21T08:02:43.593Z,9.75
2022-11-21T08:03:43.581Z,9.75
2022-11-21T08:04:43.568Z,9.77
2022-11-21T08:05:43.579Z,9.77
2022-11-21T08:06:43.543Z,9.77
2022-11-21T08:07:43.561Z,9.77
2022-11-21T08:08:43.538Z,9.77
2022-11-21T08:09:43.504Z,9.77
2022-11-21T08:10:43.488Z,9.77
2022-11-21T08:11:43.480Z,9.77
2022-11-21T08:12:43.463Z,9.79
2022-11-21T08:13:43.451Z,9.77
2022-11-21T08:14:43.437Z,9.77
2022-11-21T08:15:43.424Z,9.79
2022-11-21T08:16:43.422Z,9.77
2022-11-21T08:17:43.396Z,9.77
2022-11-21T08:18:43.388Z,9.79
2022-11-21T08:19:43.372Z,9.81
2022-11-21T08:20:43.359Z,9.81
2022-11-21T08:21:43.345Z,9.81
2022-11-21T08:22:43.334Z,9.81
2022-11-21T08:23:43.324Z,9.79
2022-11-21T08:24:43.331Z,9.79
2022-11-21T08:25:43.295Z,9.79
2022-11-21T08:26:43.282Z,9.79
2022-11-21T08:27:43.266Z,9.79
2022-11-21T08:28:43.258Z,9.79
2022-11-21T08:29:43.256Z,9.81
2022-11-21T08:30:43.231Z,9.81
2022-11-21T08:31:43.216Z,9.79
2022-11-21T08:32:43.204Z,9.81
2022-11-21T08:33:43.191Z,9.81
2022-11-21T08:34:43.178Z,9.82
2022-11-21T08:35:43.167Z,9.81
2022-11-21T08:36:43.154Z,9.82
2022-11-21T08:37:43.139Z,9.83
2022-11-21T08:38:43.129Z,9.83
2022-11-21T08:39:43.111Z,9.82
2022-11-21T08:40:43.123Z,9.83
2022-11-21T08:41:43.087Z,9.81
2022-11-21T08:42:43.077Z,9.81
2022-11-21T08:43:43.061Z,9.82
2022-11-21T08:44:43.064Z,9.82
2022-11-21T08:45:43.035Z,9.83
2022-11-21T08:46:43.023Z,9.83
2022-11-21T08:47:43.011Z,9.83
2022-11-21T08:48:43.000Z,9.83
2022-11-21T08:49:42.982Z,9.85
2022-11-21T08:50:42.971Z,9.83
2022-11-21T08:51:42.957Z,9.83
2022-11-21T08:52:42.944Z,9.83
2022-11-21T08:53:42.944Z,9.83
2022-11-21T08:54:42.919Z,9.85
2022-11-21T08:55:42.905Z,9.83
2022-11-21T08:56:42.916Z,9.85
2022-11-21T08:57:42.881Z,9.85
2022-11-21T08:58:42.866Z,9.85
2022-11-21T08:59:42.854Z,9.85
2022-11-21T09:00:42.844Z,9.83
2022-11-21T09:01:42.950Z,9.83
2022-11-21T09:02:42.815Z,9.85
2022-11-21T09:03:42.800Z,9.85
2022-11-21T09:04:42.789Z,9.85
2022-11-21T09:05:42.772Z,9.86
2022-11-21T09:06:42.763Z,9.86
2022-11-21T09:07:42.848Z,9.86
2022-11-21T09:08:42.737Z,9.85
2022-11-21T09:09:42.723Z,9.83
2022-11-21T09:10:42.713Z,9.85
2022-11-21T09:11:42.696Z,9.85
2022-11-21T09:12:42.724Z,9.83
2022-11-21T09:13:42.668Z,9.82
2022-11-21T09:14:42.657Z,9.83
2022-11-21T09:15:42.642Z,9.83
2022-11-21T09:16:42.636Z,9.83
2022-11-21T09:17:42.615Z,9.85
2022-11-21T09:18:42.605Z,9.83
2022-11-21T09:19:42.594Z,9.85
2022-11-21T09:20:42.760Z,9.85
2022-11-21T09:21:42.565Z,9.86
2022-11-21T09:22:42.554Z,9.85
2022-11-21T09:23:42.540Z,9.85
2022-11-21T09:24:42.528Z,9.88
2022-11-21T09:25:42.515Z,9.85
2022-11-21T09:26:42.504Z,9.83
2022-11-21T09:27:42.486Z,9.86
2022-11-21T09:28:42.499Z,9.85
2022-11-21T09:29:42.462Z,9.86
2022-11-21T09:30:42.450Z,9.86
2022-11-21T09:31:42.443Z,9.86
2022-11-21T09:32:42.427Z,9.86
2022-11-21T09:33:42.411Z,9.86
2022-11-21T09:34:42.400Z,9.88
2022-11-21T09:35:42.396Z,9.88
2022-11-21T09:36:42.373Z,9.86
2022-11-21T09:37:42.359Z,9.86
2022-11-21T09:38:42.347Z,9.88
2022-11-21T09:39:42.336Z,9.88
2022-11-21T09:40:42.322Z,9.88
2022-11-21T09:41:42.309Z,9.89
2022-11-21T09:42:42.303Z,9.91
2022-11-21T09:43:42.281Z,9.93
2022-11-21T09:44:42.293Z,9.89
2022-11-21T09:45:42.255Z,9.93
2022-11-21T09:46:42.247Z,9.93
2022-11-21T09:47:42.230Z,9.91
2022-11-21T09:48:42.222Z,9.93
2022-11-21T09:49:42.204Z,9.93
2022-11-21T09:50:42.192Z,9.93
2022-11-21T09:51:42.180Z,9.93
2022-11-21T09:52:42.170Z,9.93
2022-11-21T09:53:42.151Z,9.94
2022-11-21T09:54:42.143Z,9.94
2022-11-21T09:55:42.126Z,9.94
2022-11-21T09:56:42.115Z,9.94
2022-11-21T09:57:42.099Z,9.94
2022-11-21T09:58:42.090Z,9.94
2022-11-21T09:59:42.071Z,9.96
2022-11-21T10:00:42.119Z,9.96
2022-11-21T10:01:42.047Z,9.94
2022-11-21T10:02:42.034Z,9.96
2022-11-21T10:03:42.019Z,9.94
2022-11-21T10:04:42.010Z,9.96
2022-11-21T10:05:42.001Z,9.94
2022-11-21T10:06:41.983Z,9.94
2022-11-21T10:07:42.020Z,9.96
2022-11-21T10:08:41.969Z,9.96
2022-11-21T10:09:41.942Z,9.96
2022-11-21T10:10:41.928Z,9.97
2022-11-21T10:11:41.920Z,9.96
2022-11-21T10:12:42.105Z,9.96
2022-11-21T10:13:41.896Z,9.97
2022-11-21T10:14:41.878Z,9.96
2022-11-21T10:15:41.862Z,9.97
2022-11-21T10:16:42.364Z,9.96
2022-11-21T10:17:41.837Z,9.96
2022-11-21T10:18:41.825Z,9.97
2022-11-21T10:19:41.810Z,9.99
2022-11-21T10:20:41.799Z,9.97
2022-11-21T10:21:41.785Z,9.97
2022-11-21T10:22:41.775Z,9.96
2022-11-21T10:23:41.758Z,9.96
2022-11-21T10:24:41.751Z,9.94
2022-11-21T10:25:41.733Z,9.93
2022-11-21T10:26:41.720Z,9.96
2022-11-21T10:27:41.709Z,9.96
2022-11-21T10:28:41.694Z,9.96
2022-11-21T10:29:41.686Z,9.96
2022-11-21T10:30:41.669Z,9.96
2022-11-21T10:31:41.653Z,9.96
2022-11-21T10:32:41.670Z,9.96
2022-11-21T10:33:41.630Z,9.99
2022-11-21T10:34:41.616Z,9.97
2022-11-21T10:35:41.604Z,9.97
2022-11-21T10:36:41.590Z,9.96
2022-11-21T10:37:41.575Z,9.96
2022-11-21T10:38:41.564Z,9.94
2022-11-21T10:39:41.548Z,9.94
2022-11-21T10:40:41.538Z,9.93
2022-11-21T10:41:41.528Z,9.96
2022-11-21T10:42:41.510Z,9.96
2022-11-21T10:43:41.494Z,9.96
2022-11-21T10:44:41.485Z,9.94
2022-11-21T10:45:41.469Z,9.96
2022-11-21T10:46:41.458Z,9.97
2022-11-21T10:47:41.443Z,9.96
2022-11-21T10:48:41.455Z,9.97
2022-11-21T10:49:41.418Z,9.97
2022-11-21T10:50:41.406Z,9.96
2022-11-21T10:51:41.390Z,9.97
2022-11-21T10:52:41.379Z,9.99
2022-11-21T10:53:41.365Z,9.99
2022-11-21T10:54:41.353Z,9.99
2022-11-21T10:55:41.342Z,9.97
2022-11-21T10:56:41.330Z,9.97
2022-11-21T10:57:41.311Z,9.97
2022-11-21T10:58:41.303Z,9.96
2022-11-21T10:59:41.285Z,9.96
2022-11-21T11:00:41.379Z,9.97
2022-11-21T11:01:41.259Z,9.97
2022-11-21T11:02:41.246Z,9.97
2022-11-21T11:03:41.234Z,9.96
2022-11-21T11:04:49.080Z,9.97
2022-11-21T11:05:42.247Z,9.96
2022-11-21T11:06:41.197Z,9.96
2022-11-21T11:07:41.228Z,9.96
2022-11-21T11:08:41.176Z,9.97
2022-11-21T11:09:41.155Z,9.96
2022-11-21T11:10:41.143Z,9.97
2022-11-21T11:11:41.129Z,9.97
2022-11-21T11:12:41.118Z,9.97
2022-11-21T11:13:46.375Z,9.97
2022-11-21T11:14:41.092Z,9.97
2022-11-21T11:15:41.074Z,9.97
2022-11-21T11:16:41.837Z,9.97
2022-11-21T11:17:41.050Z,9.99
2022-11-21T11:18:41.039Z,9.99
2022-11-21T11:19:41.428Z,10.00
2022-11-21T11:20:41.038Z,10.00
2022-11-21T11:21:41.000Z,9.99
2022-11-21T11:22:41.029Z,9.99
2022-11-21T11:23:40.971Z,9.99
2022-11-21T11:24:40.960Z,9.99
2022-11-21T11:25:40.943Z,9.99
2022-11-21T11:26:40.931Z,9.99
2022-11-21T11:27:40.921Z,9.99
2022-11-21T11:28:40.905Z,9.99
2022-11-21T11:29:40.891Z,10.00
2022-11-21T11:30:40.880Z,9.99
2022-11-21T11:31:40.882Z,9.99
2022-11-21T11:32:40.855Z,9.99
2022-11-21T11:33:40.837Z,10.00
2022-11-21T11:34:40.825Z,10.00
2022-11-21T11:35:40.813Z,10.00
2022-11-21T11:36:40.823Z,10.00
2022-11-21T11:37:41.434Z,10.01
2022-11-21T11:38:40.776Z,10.01
2022-11-21T11:39:40.759Z,10.01
2022-11-21T11:40:40.747Z,10.01
2022-11-21T11:41:40.732Z,10.00
2022-11-21T11:42:40.721Z,10.00
2022-11-21T11:43:40.707Z,10.00
2022-11-21T11:44:40.695Z,10.01
2022-11-21T11:45:40.680Z,10.00
2022-11-21T11:46:40.663Z,10.03
2022-11-21T11:47:40.651Z,10.01
2022-11-21T11:48:56.592Z,10.01
2022-11-21T11:49:40.623Z,10.00
2022-11-21T11:50:40.614Z,10.01
2022-11-21T11:51:40.600Z,10.00
2022-11-21T11:52:40.615Z,10.00
2022-11-21T11:53:40.574Z,10.01
2022-11-21T11:54:40.563Z,10.01
2022-11-21T11:55:40.547Z,10.01
2022-11-21T11:56:40.539Z,10.00
2022-11-21T11:57:40.521Z,10.00
2022-11-21T11:58:40.513Z,9.99
2022-11-21T11:59:40.518Z,9.99
2022-11-21T12:00:40.487Z,10.00
2022-11-21T12:01:40.565Z,10.00
2022-11-21T12:02:40.497Z,9.99
2022-11-21T12:03:40.447Z,10.00
2022-11-21T12:04:40.433Z,9.99
2022-11-21T12:05:40.418Z,10.00
2022-11-21T12:07:26.194Z,10.00
2022-11-21T12:08:38.751Z,9.99
2022-11-21T12:08:42.802Z,10.00
2022-11-21T12:09:40.493Z,10.00
2022-11-21T12:10:40.355Z,10.00
2022-11-21T12:11:40.338Z,10.01
2022-11-21T12:12:40.326Z,10.00
2022-11-21T12:13:40.312Z,10.01
2022-11-21T12:14:40.303Z,10.00
2022-11-21T12:15:40.293Z,9.99
2022-11-21T12:16:40.278Z,10.00
2022-11-21T12:17:40.268Z,9.99
2022-11-21T12:18:40.250Z,10.00
2022-11-21T12:19:40.235Z,9.99
2022-11-21T12:20:40.225Z,9.99
2022-11-21T12:21:40.208Z,10.00
2022-11-21T12:22:40.198Z,10.00
2022-11-21T12:23:40.184Z,10.03
2022-11-21T12:24:43.247Z,10.00
2022-11-21T12:25:40.156Z,9.99
2022-11-21T12:26:40.144Z,10.01
2022-11-21T12:27:40.132Z,10.00
2022-11-21T12:28:40.118Z,10.00
2022-11-21T12:29:40.103Z,9.99
2022-11-21T12:30:40.092Z,10.00
2022-11-21T12:31:40.079Z,10.01
2022-11-21T12:32:40.063Z,10.00
2022-11-21T12:33:40.054Z,10.01
2022-11-21T12:34:40.039Z,10.00
2022-11-21T12:35:40.037Z,10.01
2022-11-21T12:36:40.041Z,10.00
2022-11-21T12:37:40.003Z,10.00
2022-11-21T12:38:44.740Z,9.99
2022-11-21T12:39:39.980Z,9.99
2022-11-21T12:40:40.031Z,9.97
2022-11-21T12:41:39.949Z,9.97
2022-11-21T12:42:39.935Z,9.96
2022-11-21T12:43:39.924Z,9.94
2022-11-21T12:44:39.909Z,9.94
2022-11-21T12:45:39.896Z,9.93
2022-11-21T12:46:39.883Z,9.93
2022-11-21T12:47:39.871Z,9.93
2022-11-21T12:48:39.856Z,9.93
2022-11-21T12:49:39.844Z,9.91
2022-11-21T12:50:39.834Z,9.89
2022-11-21T12:51:39.821Z,9.91
2022-11-21T12:52:39.804Z,9.89
2022-11-21T12:53:39.791Z,9.89
2022-11-21T12:54:39.779Z,9.91
2022-11-21T12:55:39.765Z,9.91
2022-11-21T12:56:39.775Z,9.88
2022-11-21T12:57:39.740Z,9.89
2022-11-21T12:58:39.726Z,9.93
2022-11-21T12:59:39.715Z,9.89
2022-11-21T13:00:39.704Z,9.91
2022-11-21T13:01:39.772Z,9.89
2022-11-21T13:02:39.675Z,9.91
2022-11-21T13:03:39.665Z,9.91
2022-11-21T13:04:39.647Z,9.89
2022-11-21T13:05:39.638Z,9.89
2022-11-21T13:06:39.619Z,9.91
2022-11-21T13:07:39.710Z,9.89
2022-11-21T13:08:39.599Z,9.89
2022-11-21T13:09:39.582Z,9.88
2022-11-21T13:10:39.570Z,9.86
2022-11-21T13:11:39.557Z,9.88
2022-11-21T13:12:39.565Z,9.89
2022-11-21T13:13:39.533Z,9.89
2022-11-21T13:14:39.516Z,9.88
2022-11-21T13:15:39.510Z,9.88
2022-11-21T13:16:39.489Z,9.88